sensor_id;sensor_type;location;lat;lon;timestamp;temperature;humidity
80367;DHT22;70058;42.660;23.366;2023-08-06T00:01:50;22.90;60.20
80367;DHT22;70058;42.660;23.366;2023-08-06T00:04:16;23.00;62.10
80367;DHT22;70058;42.660;23.366;2023-08-06T00:06:42;23.00;61.20
80367;DHT22;70058;42.660;23.366;2023-08-06T00:09:07;22.90;60.10
80367;DHT22;70058;42.660;23.366;2023-08-06T00:11:33;22.70;59.50
80367;DHT22;70058;42.660;23.366;2023-08-06T00:13:59;22.80;60.00
80367;DHT22;70058;42.660;23.366;2023-08-06T00:16:25;22.80;61.40
80367;DHT22;70058;42.660;23.366;2023-08-06T00:18:50;22.60;61.00
80367;DHT22;70058;42.660;23.366;2023-08-06T00:21:16;22.60;62.00
80367;DHT22;70058;42.660;23.366;2023-08-06T00:23:42;22.60;62.40
80367;DHT22;70058;42.660;23.366;2023-08-06T00:26:08;22.50;62.00
80367;DHT22;70058;42.660;23.366;2023-08-06T00:28:33;22.50;62.80
80367;DHT22;70058;42.660;23.366;2023-08-06T00:30:59;22.40;63.80
80367;DHT22;70058;42.660;23.366;2023-08-06T00:33:25;22.30;62.20
80367;DHT22;70058;42.660;23.366;2023-08-06T00:35:51;22.30;62.10
80367;DHT22;70058;42.660;23.366;2023-08-06T00:38:16;22.50;61.50
80367;DHT22;70058;42.660;23.366;2023-08-06T00:40:42;22.40;61.10
80367;DHT22;70058;42.660;23.366;2023-08-06T00:43:09;22.50;60.70
80367;DHT22;70058;42.660;23.366;2023-08-06T00:45:35;22.40;60.30
80367;DHT22;70058;42.660;23.366;2023-08-06T00:48:02;22.50;60.80
80367;DHT22;70058;42.660;23.366;2023-08-06T00:50:29;22.50;60.80
80367;DHT22;70058;42.660;23.366;2023-08-06T00:52:55;22.50;61.40
80367;DHT22;70058;42.660;23.366;2023-08-06T00:55:21;22.50;60.70
80367;DHT22;70058;42.660;23.366;2023-08-06T00:57:46;22.70;60.30
80367;DHT22;70058;42.660;23.366;2023-08-06T01:00:12;22.70;60.30
80367;DHT22;70058;42.660;23.366;2023-08-06T01:02:38;22.70;60.40
80367;DHT22;70058;42.660;23.366;2023-08-06T01:05:04;22.70;60.90
80367;DHT22;70058;42.660;23.366;2023-08-06T01:07:37;22.70;60.30
80367;DHT22;70058;42.660;23.366;2023-08-06T01:15:46;22.70;59.80
80367;DHT22;70058;42.660;23.366;2023-08-06T01:18:12;22.70;60.20
80367;DHT22;70058;42.660;23.366;2023-08-06T01:20:38;22.70;59.80
80367;DHT22;70058;42.660;23.366;2023-08-06T01:23:03;22.70;60.30
80367;DHT22;70058;42.660;23.366;2023-08-06T01:26:02;22.80;60.20
80367;DHT22;70058;42.660;23.366;2023-08-06T01:28:41;22.80;60.30
80367;DHT22;70058;42.660;23.366;2023-08-06T01:31:15;22.70;60.30
80367;DHT22;70058;42.660;23.366;2023-08-06T01:33:45;22.70;60.20
80367;DHT22;70058;42.660;23.366;2023-08-06T01:36:16;22.70;60.50
80367;DHT22;70058;42.660;23.366;2023-08-06T01:38:42;22.70;60.80
80367;DHT22;70058;42.660;23.366;2023-08-06T01:41:08;22.80;60.20
80367;DHT22;70058;42.660;23.366;2023-08-06T01:43:33;22.80;60.00
80367;DHT22;70058;42.660;23.366;2023-08-06T01:45:59;22.80;60.50
80367;DHT22;70058;42.660;23.366;2023-08-06T01:48:25;22.80;60.40
80367;DHT22;70058;42.660;23.366;2023-08-06T01:50:50;22.80;60.40
80367;DHT22;70058;42.660;23.366;2023-08-06T01:53:16;22.70;60.90
80367;DHT22;70058;42.660;23.366;2023-08-06T01:55:42;22.80;60.80
80367;DHT22;70058;42.660;23.366;2023-08-06T01:58:07;22.60;61.00
80367;DHT22;70058;42.660;23.366;2023-08-06T02:00:33;22.60;61.40
80367;DHT22;70058;42.660;23.366;2023-08-06T02:02:59;22.60;61.70
80367;DHT22;70058;42.660;23.366;2023-08-06T02:05:24;22.70;61.40
80367;DHT22;70058;42.660;23.366;2023-08-06T02:07:50;22.70;61.40
80367;DHT22;70058;42.660;23.366;2023-08-06T02:10:16;22.80;60.60
80367;DHT22;70058;42.660;23.366;2023-08-06T02:12:41;22.80;60.50
80367;DHT22;70058;42.660;23.366;2023-08-06T02:15:07;22.80;60.70
80367;DHT22;70058;42.660;23.366;2023-08-06T02:17:33;22.80;60.70
80367;DHT22;70058;42.660;23.366;2023-08-06T02:19:58;22.80;61.00
80367;DHT22;70058;42.660;23.366;2023-08-06T02:22:24;22.80;60.80
80367;DHT22;70058;42.660;23.366;2023-08-06T02:24:50;22.70;61.10
80367;DHT22;70058;42.660;23.366;2023-08-06T02:27:16;22.60;61.10
80367;DHT22;70058;42.660;23.366;2023-08-06T02:29:41;22.40;62.10
80367;DHT22;70058;42.660;23.366;2023-08-06T02:32:07;22.40;62.90
80367;DHT22;70058;42.660;23.366;2023-08-06T02:34:33;22.10;66.40
80367;DHT22;70058;42.660;23.366;2023-08-06T02:36:58;22.20;68.90
80367;DHT22;70058;42.660;23.366;2023-08-06T02:39:24;22.10;69.10
80367;DHT22;70058;42.660;23.366;2023-08-06T02:41:49;22.10;69.30
80367;DHT22;70058;42.660;23.366;2023-08-06T02:44:15;22.10;68.50
80367;DHT22;70058;42.660;23.366;2023-08-06T02:46:41;22.20;68.40
80367;DHT22;70058;42.660;23.366;2023-08-06T02:49:07;22.20;67.70
80367;DHT22;70058;42.660;23.366;2023-08-06T02:51:32;22.30;66.90
80367;DHT22;70058;42.660;23.366;2023-08-06T02:53:58;22.30;66.00
80367;DHT22;70058;42.660;23.366;2023-08-06T02:56:23;22.20;65.60
80367;DHT22;70058;42.660;23.366;2023-08-06T02:58:49;22.30;65.40
80367;DHT22;70058;42.660;23.366;2023-08-06T03:01:15;22.30;64.80
80367;DHT22;70058;42.660;23.366;2023-08-06T03:03:41;22.30;64.20
80367;DHT22;70058;42.660;23.366;2023-08-06T03:06:06;22.30;64.90
80367;DHT22;70058;42.660;23.366;2023-08-06T03:08:32;22.20;65.90
80367;DHT22;70058;42.660;23.366;2023-08-06T03:10:58;22.00;64.40
80367;DHT22;70058;42.660;23.366;2023-08-06T03:13:23;22.10;65.40
80367;DHT22;70058;42.660;23.366;2023-08-06T03:15:56;22.20;64.80
80367;DHT22;70058;42.660;23.366;2023-08-06T03:18:22;22.30;64.70
80367;DHT22;70058;42.660;23.366;2023-08-06T03:20:48;21.90;64.40
80367;DHT22;70058;42.660;23.366;2023-08-06T03:23:14;22.00;65.30
80367;DHT22;70058;42.660;23.366;2023-08-06T03:25:40;22.10;65.60
80367;DHT22;70058;42.660;23.366;2023-08-06T03:28:05;22.00;66.40
80367;DHT22;70058;42.660;23.366;2023-08-06T03:30:31;21.90;64.80
80367;DHT22;70058;42.660;23.366;2023-08-06T03:32:56;21.80;65.80
80367;DHT22;70058;42.660;23.366;2023-08-06T03:35:22;21.90;66.20
80367;DHT22;70058;42.660;23.366;2023-08-06T03:37:48;22.10;65.90
80367;DHT22;70058;42.660;23.366;2023-08-06T03:40:15;22.10;65.30
80367;DHT22;70058;42.660;23.366;2023-08-06T03:42:40;22.30;64.60
80367;DHT22;70058;42.660;23.366;2023-08-06T03:45:07;22.30;64.70
80367;DHT22;70058;42.660;23.366;2023-08-06T03:47:32;22.40;64.50
80367;DHT22;70058;42.660;23.366;2023-08-06T03:49:58;22.40;64.30
80367;DHT22;70058;42.660;23.366;2023-08-06T03:52:24;22.40;64.30
80367;DHT22;70058;42.660;23.366;2023-08-06T03:54:49;22.50;64.00
80367;DHT22;70058;42.660;23.366;2023-08-06T03:57:15;22.50;63.70
80367;DHT22;70058;42.660;23.366;2023-08-06T03:59:41;22.30;63.00
80367;DHT22;70058;42.660;23.366;2023-08-06T04:02:07;22.40;63.70
80367;DHT22;70058;42.660;23.366;2023-08-06T04:04:32;22.40;63.80
80367;DHT22;70058;42.660;23.366;2023-08-06T04:06:58;22.30;63.20
80367;DHT22;70058;42.660;23.366;2023-08-06T04:09:24;22.40;63.70
80367;DHT22;70058;42.660;23.366;2023-08-06T04:11:49;22.40;63.80
80367;DHT22;70058;42.660;23.366;2023-08-06T04:14:15;22.40;64.00
80367;DHT22;70058;42.660;23.366;2023-08-06T04:16:40;22.50;63.50
80367;DHT22;70058;42.660;23.366;2023-08-06T04:19:06;22.60;63.00
80367;DHT22;70058;42.660;23.366;2023-08-06T04:21:32;22.70;62.40
80367;DHT22;70058;42.660;23.366;2023-08-06T04:23:58;22.70;63.00
80367;DHT22;70058;42.660;23.366;2023-08-06T04:26:23;22.90;62.70
80367;DHT22;70058;42.660;23.366;2023-08-06T04:28:49;22.90;62.60
80367;DHT22;70058;42.660;23.366;2023-08-06T04:31:15;22.90;62.50
80367;DHT22;70058;42.660;23.366;2023-08-06T04:33:40;22.90;62.40
80367;DHT22;70058;42.660;23.366;2023-08-06T04:36:06;22.90;62.60
80367;DHT22;70058;42.660;23.366;2023-08-06T04:38:32;22.90;62.50
80367;DHT22;70058;42.660;23.366;2023-08-06T04:40:58;22.90;62.60
80367;DHT22;70058;42.660;23.366;2023-08-06T04:43:24;23.10;62.10
80367;DHT22;70058;42.660;23.366;2023-08-06T04:45:50;23.10;61.80
80367;DHT22;70058;42.660;23.366;2023-08-06T04:48:17;23.10;61.50
80367;DHT22;70058;42.660;23.366;2023-08-06T04:50:46;23.30;61.40
80367;DHT22;70058;42.660;23.366;2023-08-06T04:53:12;23.40;61.00
80367;DHT22;70058;42.660;23.366;2023-08-06T04:55:38;23.50;61.50
80367;DHT22;70058;42.660;23.366;2023-08-06T04:58:04;23.60;60.50
80367;DHT22;70058;42.660;23.366;2023-08-06T05:00:30;23.70;60.20
80367;DHT22;70058;42.660;23.366;2023-08-06T05:02:56;23.80;60.00
80367;DHT22;70058;42.660;23.366;2023-08-06T05:05:22;23.80;60.10
80367;DHT22;70058;42.660;23.366;2023-08-06T05:07:49;24.00;59.40
80367;DHT22;70058;42.660;23.366;2023-08-06T05:10:15;24.10;59.10
80367;DHT22;70058;42.660;23.366;2023-08-06T05:12:41;24.30;58.00
80367;DHT22;70058;42.660;23.366;2023-08-06T05:15:07;24.70;57.70
80367;DHT22;70058;42.660;23.366;2023-08-06T05:17:33;25.00;56.50
80367;DHT22;70058;42.660;23.366;2023-08-06T05:19:59;25.30;55.10
80367;DHT22;70058;42.660;23.366;2023-08-06T05:22:25;25.60;54.60
80367;DHT22;70058;42.660;23.366;2023-08-06T05:24:51;25.80;53.80
80367;DHT22;70058;42.660;23.366;2023-08-06T05:27:16;25.80;53.70
80367;DHT22;70058;42.660;23.366;2023-08-06T05:29:44;25.80;53.60
80367;DHT22;70058;42.660;23.366;2023-08-06T05:32:10;25.70;53.80
80367;DHT22;70058;42.660;23.366;2023-08-06T05:34:36;25.60;54.50
80367;DHT22;70058;42.660;23.366;2023-08-06T05:37:02;25.80;54.20
80367;DHT22;70058;42.660;23.366;2023-08-06T05:39:28;25.90;53.70
80367;DHT22;70058;42.660;23.366;2023-08-06T05:41:53;26.20;53.70
80367;DHT22;70058;42.660;23.366;2023-08-06T05:44:20;26.40;52.70
80367;DHT22;70058;42.660;23.366;2023-08-06T05:46:46;26.60;52.00
80367;DHT22;70058;42.660;23.366;2023-08-06T05:49:12;26.80;51.70
80367;DHT22;70058;42.660;23.366;2023-08-06T05:51:39;26.90;51.70
80367;DHT22;70058;42.660;23.366;2023-08-06T05:54:04;27.10;51.00
80367;DHT22;70058;42.660;23.366;2023-08-06T05:56:30;27.30;50.40
80367;DHT22;70058;42.660;23.366;2023-08-06T05:58:56;27.40;49.60
80367;DHT22;70058;42.660;23.366;2023-08-06T06:01:21;27.60;49.00
80367;DHT22;70058;42.660;23.366;2023-08-06T06:03:47;27.40;49.00
80367;DHT22;70058;42.660;23.366;2023-08-06T06:06:13;27.30;48.90
80367;DHT22;70058;42.660;23.366;2023-08-06T06:08:38;27.30;48.70
80367;DHT22;70058;42.660;23.366;2023-08-06T06:11:04;27.30;49.20
80367;DHT22;70058;42.660;23.366;2023-08-06T06:13:29;27.60;48.40
80367;DHT22;70058;42.660;23.366;2023-08-06T06:15:55;27.80;47.50
80367;DHT22;70058;42.660;23.366;2023-08-06T06:18:23;27.70;46.90
80367;DHT22;70058;42.660;23.366;2023-08-06T06:20:49;27.90;46.00
80367;DHT22;70058;42.660;23.366;2023-08-06T06:23:17;28.20;45.80
80367;DHT22;70058;42.660;23.366;2023-08-06T06:25:46;29.10;44.60
80367;DHT22;70058;42.660;23.366;2023-08-06T06:28:12;31.50;40.60
80367;DHT22;70058;42.660;23.366;2023-08-06T06:30:37;34.10;35.60
80367;DHT22;70058;42.660;23.366;2023-08-06T06:33:03;34.80;34.10
80367;DHT22;70058;42.660;23.366;2023-08-06T06:35:29;35.90;32.60
80367;DHT22;70058;42.660;23.366;2023-08-06T06:37:55;37.50;30.00
80367;DHT22;70058;42.660;23.366;2023-08-06T06:40:20;38.60;28.90
80367;DHT22;70058;42.660;23.366;2023-08-06T06:42:47;39.70;27.00
80367;DHT22;70058;42.660;23.366;2023-08-06T06:45:13;39.60;26.50
80367;DHT22;70058;42.660;23.366;2023-08-06T06:47:38;38.70;26.20
80367;DHT22;70058;42.660;23.366;2023-08-06T06:50:04;37.90;27.40
80367;DHT22;70058;42.660;23.366;2023-08-06T06:52:30;37.10;27.50
80367;DHT22;70058;42.660;23.366;2023-08-06T06:54:56;35.80;29.40
80367;DHT22;70058;42.660;23.366;2023-08-06T06:57:21;35.00;30.30
80367;DHT22;70058;42.660;23.366;2023-08-06T06:59:47;34.80;30.30
80367;DHT22;70058;42.660;23.366;2023-08-06T07:02:12;34.40;31.00
80367;DHT22;70058;42.660;23.366;2023-08-06T07:04:38;34.30;30.50
80367;DHT22;70058;42.660;23.366;2023-08-06T07:07:04;34.50;31.40
80367;DHT22;70058;42.660;23.366;2023-08-06T07:09:30;35.70;29.10
80367;DHT22;70058;42.660;23.366;2023-08-06T07:11:55;36.00;28.70
80367;DHT22;70058;42.660;23.366;2023-08-06T07:14:21;35.50;28.90
80367;DHT22;70058;42.660;23.366;2023-08-06T07:16:47;34.80;30.30
80367;DHT22;70058;42.660;23.366;2023-08-06T07:19:12;34.50;30.80
80367;DHT22;70058;42.660;23.366;2023-08-06T07:21:38;35.80;29.20
80367;DHT22;70058;42.660;23.366;2023-08-06T07:24:03;38.70;27.00
80367;DHT22;70058;42.660;23.366;2023-08-06T07:26:29;41.30;24.70
80367;DHT22;70058;42.660;23.366;2023-08-06T07:28:55;43.10;22.90
80367;DHT22;70058;42.660;23.366;2023-08-06T07:31:20;44.70;21.60
80367;DHT22;70058;42.660;23.366;2023-08-06T07:33:46;46.00;20.60
80367;DHT22;70058;42.660;23.366;2023-08-06T07:36:14;46.30;20.10
80367;DHT22;70058;42.660;23.366;2023-08-06T07:38:40;45.70;19.50
80367;DHT22;70058;42.660;23.366;2023-08-06T07:41:06;43.90;20.40
80367;DHT22;70058;42.660;23.366;2023-08-06T07:43:32;42.40;21.80
80367;DHT22;70058;42.660;23.366;2023-08-06T07:45:58;41.40;22.40
80367;DHT22;70058;42.660;23.366;2023-08-06T07:48:25;42.10;22.10
80367;DHT22;70058;42.660;23.366;2023-08-06T07:50:52;42.30;21.90
80367;DHT22;70058;42.660;23.366;2023-08-06T07:53:22;43.10;21.30
80367;DHT22;70058;42.660;23.366;2023-08-06T07:55:52;42.30;22.00
80367;DHT22;70058;42.660;23.366;2023-08-06T07:58:19;41.00;22.80
80367;DHT22;70058;42.660;23.366;2023-08-06T08:00:45;39.50;23.80
80367;DHT22;70058;42.660;23.366;2023-08-06T08:03:15;38.20;25.40
80367;DHT22;70058;42.660;23.366;2023-08-06T08:05:44;36.70;26.70
80367;DHT22;70058;42.660;23.366;2023-08-06T08:08:10;36.90;26.70
80367;DHT22;70058;42.660;23.366;2023-08-06T08:10:36;37.30;27.10
80367;DHT22;70058;42.660;23.366;2023-08-06T08:13:03;38.20;25.80
80367;DHT22;70058;42.660;23.366;2023-08-06T08:15:30;38.50;25.40
80367;DHT22;70058;42.660;23.366;2023-08-06T08:17:56;38.80;24.60
80367;DHT22;70058;42.660;23.366;2023-08-06T08:20:22;38.30;25.50
80367;DHT22;70058;42.660;23.366;2023-08-06T08:22:48;38.80;25.10
80367;DHT22;70058;42.660;23.366;2023-08-06T08:25:14;39.30;24.20
80367;DHT22;70058;42.660;23.366;2023-08-06T08:27:39;39.00;24.10
80367;DHT22;70058;42.660;23.366;2023-08-06T08:30:05;39.50;23.80
80367;DHT22;70058;42.660;23.366;2023-08-06T08:32:31;40.60;23.70
80367;DHT22;70058;42.660;23.366;2023-08-06T08:34:57;42.70;21.40
80367;DHT22;70058;42.660;23.366;2023-08-06T08:37:23;44.50;21.50
80367;DHT22;70058;42.660;23.366;2023-08-06T08:39:49;45.50;19.40
80367;DHT22;70058;42.660;23.366;2023-08-06T08:42:15;47.20;18.60
80367;DHT22;70058;42.660;23.366;2023-08-06T08:44:42;48.10;17.80
80367;DHT22;70058;42.660;23.366;2023-08-06T08:47:08;48.40;17.50
80367;DHT22;70058;42.660;23.366;2023-08-06T08:49:36;49.10;17.00
80367;DHT22;70058;42.660;23.366;2023-08-06T08:52:03;50.00;16.50
80367;DHT22;70058;42.660;23.366;2023-08-06T08:54:33;50.50;16.20
80367;DHT22;70058;42.660;23.366;2023-08-06T08:56:59;50.50;16.20
80367;DHT22;70058;42.660;23.366;2023-08-06T08:59:26;50.90;15.70
80367;DHT22;70058;42.660;23.366;2023-08-06T09:01:52;51.40;15.50
80367;DHT22;70058;42.660;23.366;2023-08-06T09:04:19;51.70;15.40
80367;DHT22;70058;42.660;23.366;2023-08-06T09:06:51;52.20;15.00
80367;DHT22;70058;42.660;23.366;2023-08-06T09:09:25;52.80;14.80
80367;DHT22;70058;42.660;23.366;2023-08-06T09:11:51;53.60;14.40
80367;DHT22;70058;42.660;23.366;2023-08-06T09:14:17;54.00;13.90
80367;DHT22;70058;42.660;23.366;2023-08-06T09:16:44;54.10;13.90
80367;DHT22;70058;42.660;23.366;2023-08-06T09:19:13;54.00;14.00
80367;DHT22;70058;42.660;23.366;2023-08-06T09:21:42;54.00;14.10
80367;DHT22;70058;42.660;23.366;2023-08-06T09:24:12;54.60;13.80
80367;DHT22;70058;42.660;23.366;2023-08-06T09:26:39;55.20;13.40
80367;DHT22;70058;42.660;23.366;2023-08-06T09:29:06;55.40;13.40
80367;DHT22;70058;42.660;23.366;2023-08-06T09:31:42;55.30;12.70
80367;DHT22;70058;42.660;23.366;2023-08-06T09:34:15;55.30;13.20
80367;DHT22;70058;42.660;23.366;2023-08-06T09:36:42;54.10;13.70
80367;DHT22;70058;42.660;23.366;2023-08-06T09:39:15;51.70;14.70
80367;DHT22;70058;42.660;23.366;2023-08-06T09:41:45;51.90;14.50
80367;DHT22;70058;42.660;23.366;2023-08-06T09:44:17;52.90;14.00
80367;DHT22;70058;42.660;23.366;2023-08-06T09:46:57;54.20;13.20
80367;DHT22;70058;42.660;23.366;2023-08-06T09:51:58;55.40;12.70
80367;DHT22;70058;42.660;23.366;2023-08-06T09:54:26;56.00;12.20
80367;DHT22;70058;42.660;23.366;2023-08-06T09:56:56;56.60;12.00
80367;DHT22;70058;42.660;23.366;2023-08-06T09:59:22;55.60;12.20
80367;DHT22;70058;42.660;23.366;2023-08-06T10:01:49;53.10;13.10
80367;DHT22;70058;42.660;23.366;2023-08-06T10:04:16;50.30;14.70
80367;DHT22;70058;42.660;23.366;2023-08-06T10:06:42;47.70;15.80
80367;DHT22;70058;42.660;23.366;2023-08-06T10:09:08;45.30;17.50
80367;DHT22;70058;42.660;23.366;2023-08-06T10:11:36;43.70;17.90
80367;DHT22;70058;42.660;23.366;2023-08-06T10:14:10;42.20;19.10
80367;DHT22;70058;42.660;23.366;2023-08-06T10:16:38;40.80;20.40
80367;DHT22;70058;42.660;23.366;2023-08-06T10:19:05;39.70;21.10
80367;DHT22;70058;42.660;23.366;2023-08-06T10:21:31;39.40;21.50
80367;DHT22;70058;42.660;23.366;2023-08-06T10:23:57;40.10;21.10
80367;DHT22;70058;42.660;23.366;2023-08-06T10:26:30;39.80;21.10
80367;DHT22;70058;42.660;23.366;2023-08-06T10:28:56;39.20;21.50
80367;DHT22;70058;42.660;23.366;2023-08-06T10:31:53;38.50;22.80
80367;DHT22;70058;42.660;23.366;2023-08-06T10:34:20;37.80;23.40
80367;DHT22;70058;42.660;23.366;2023-08-06T10:36:46;37.40;23.60
80367;DHT22;70058;42.660;23.366;2023-08-06T10:39:15;37.20;23.70
80367;DHT22;70058;42.660;23.366;2023-08-06T10:41:42;37.00;24.30
80367;DHT22;70058;42.660;23.366;2023-08-06T10:44:10;36.30;24.60
80367;DHT22;70058;42.660;23.366;2023-08-06T10:46:37;35.60;25.40
80367;DHT22;70058;42.660;23.366;2023-08-06T10:49:04;35.40;26.00
80367;DHT22;70058;42.660;23.366;2023-08-06T10:51:30;35.30;26.00
80367;DHT22;70058;42.660;23.366;2023-08-06T10:53:56;35.00;26.40
80367;DHT22;70058;42.660;23.366;2023-08-06T10:56:24;34.70;26.50
80367;DHT22;70058;42.660;23.366;2023-08-06T10:58:56;34.60;26.60
80367;DHT22;70058;42.660;23.366;2023-08-06T11:01:23;34.50;26.60
80367;DHT22;70058;42.660;23.366;2023-08-06T11:03:49;34.50;27.00
80367;DHT22;70058;42.660;23.366;2023-08-06T11:06:22;34.40;27.10
80367;DHT22;70058;42.660;23.366;2023-08-06T11:08:57;34.60;26.20
80367;DHT22;70058;42.660;23.366;2023-08-06T11:11:23;34.40;26.40
80367;DHT22;70058;42.660;23.366;2023-08-06T11:13:50;34.20;26.50
80367;DHT22;70058;42.660;23.366;2023-08-06T11:16:18;34.20;27.00
80367;DHT22;70058;42.660;23.366;2023-08-06T11:18:45;33.80;27.60
80367;DHT22;70058;42.660;23.366;2023-08-06T11:21:11;33.70;28.00
80367;DHT22;70058;42.660;23.366;2023-08-06T11:23:40;33.40;28.60
80367;DHT22;70058;42.660;23.366;2023-08-06T11:26:06;33.10;29.00
80367;DHT22;70058;42.660;23.366;2023-08-06T11:28:32;32.80;29.60
80367;DHT22;70058;42.660;23.366;2023-08-06T11:30:59;32.70;30.50
80367;DHT22;70058;42.660;23.366;2023-08-06T11:33:28;32.60;30.30
80367;DHT22;70058;42.660;23.366;2023-08-06T11:35:58;32.50;30.20
80367;DHT22;70058;42.660;23.366;2023-08-06T11:38:29;32.50;30.20
80367;DHT22;70058;42.660;23.366;2023-08-06T11:40:55;32.60;30.00
80367;DHT22;70058;42.660;23.366;2023-08-06T11:43:22;32.80;29.50
80367;DHT22;70058;42.660;23.366;2023-08-06T11:45:49;32.80;28.70
80367;DHT22;70058;42.660;23.366;2023-08-06T11:48:15;32.80;28.40
80367;DHT22;70058;42.660;23.366;2023-08-06T11:50:40;32.70;28.60
80367;DHT22;70058;42.660;23.366;2023-08-06T11:53:06;32.50;28.40
80367;DHT22;70058;42.660;23.366;2023-08-06T11:55:33;32.00;28.70
80367;DHT22;70058;42.660;23.366;2023-08-06T11:58:03;31.70;29.20
80367;DHT22;70058;42.660;23.366;2023-08-06T12:00:32;31.60;30.00
80367;DHT22;70058;42.660;23.366;2023-08-06T12:02:58;31.20;30.00
80367;DHT22;70058;42.660;23.366;2023-08-06T12:05:29;31.10;30.60
80367;DHT22;70058;42.660;23.366;2023-08-06T12:07:59;30.70;30.10
80367;DHT22;70058;42.660;23.366;2023-08-06T12:10:26;30.60;30.80
80367;DHT22;70058;42.660;23.366;2023-08-06T12:12:53;30.50;31.00
80367;DHT22;70058;42.660;23.366;2023-08-06T12:15:19;30.70;30.40
80367;DHT22;70058;42.660;23.366;2023-08-06T12:17:45;30.70;30.10
80367;DHT22;70058;42.660;23.366;2023-08-06T12:20:11;30.70;31.00
80367;DHT22;70058;42.660;23.366;2023-08-06T12:22:37;30.90;30.90
80367;DHT22;70058;42.660;23.366;2023-08-06T12:25:09;31.10;30.40
80367;DHT22;70058;42.660;23.366;2023-08-06T12:27:41;31.20;29.70
80367;DHT22;70058;42.660;23.366;2023-08-06T12:30:08;31.10;29.80
80367;DHT22;70058;42.660;23.366;2023-08-06T12:32:34;31.20;30.50
80367;DHT22;70058;42.660;23.366;2023-08-06T12:35:00;31.30;30.00
80367;DHT22;70058;42.660;23.366;2023-08-06T12:37:26;31.40;29.90
80367;DHT22;70058;42.660;23.366;2023-08-06T12:39:52;31.70;30.00
80367;DHT22;70058;42.660;23.366;2023-08-06T12:42:18;31.90;29.90
80367;DHT22;70058;42.660;23.366;2023-08-06T12:44:44;31.90;29.90
80367;DHT22;70058;42.660;23.366;2023-08-06T12:47:09;32.10;29.90
80367;DHT22;70058;42.660;23.366;2023-08-06T12:49:35;32.30;29.00
80367;DHT22;70058;42.660;23.366;2023-08-06T12:52:02;32.40;29.30
80367;DHT22;70058;42.660;23.366;2023-08-06T12:54:30;32.40;29.60
80367;DHT22;70058;42.660;23.366;2023-08-06T12:57:02;32.30;28.60
80367;DHT22;70058;42.660;23.366;2023-08-06T12:59:28;32.00;29.00
80367;DHT22;70058;42.660;23.366;2023-08-06T13:01:54;31.90;29.00
80367;DHT22;70058;42.660;23.366;2023-08-06T13:04:19;31.50;29.50
80367;DHT22;70058;42.660;23.366;2023-08-06T13:06:45;31.30;29.70
80367;DHT22;70058;42.660;23.366;2023-08-06T13:09:11;31.30;30.20
80367;DHT22;70058;42.660;23.366;2023-08-06T13:11:39;31.30;30.00
80367;DHT22;70058;42.660;23.366;2023-08-06T13:16:35;31.60;29.80
80367;DHT22;70058;42.660;23.366;2023-08-06T13:19:02;31.90;29.90
80367;DHT22;70058;42.660;23.366;2023-08-06T13:21:33;32.20;29.20
80367;DHT22;70058;42.660;23.366;2023-08-06T13:24:00;32.40;28.40
80367;DHT22;70058;42.660;23.366;2023-08-06T13:26:27;32.40;28.20
80367;DHT22;70058;42.660;23.366;2023-08-06T13:28:52;32.20;29.10
80367;DHT22;70058;42.660;23.366;2023-08-06T13:31:18;32.20;29.20
80367;DHT22;70058;42.660;23.366;2023-08-06T13:33:44;32.10;29.60
80367;DHT22;70058;42.660;23.366;2023-08-06T13:36:09;32.00;29.70
80367;DHT22;70058;42.660;23.366;2023-08-06T13:38:35;31.80;28.90
80367;DHT22;70058;42.660;23.366;2023-08-06T13:41:01;31.60;28.90
80367;DHT22;70058;42.660;23.366;2023-08-06T13:43:27;31.70;29.50
80367;DHT22;70058;42.660;23.366;2023-08-06T13:45:53;31.90;29.20
80367;DHT22;70058;42.660;23.366;2023-08-06T13:48:19;31.90;29.00
80367;DHT22;70058;42.660;23.366;2023-08-06T13:50:44;32.20;28.60
80367;DHT22;70058;42.660;23.366;2023-08-06T13:53:10;32.30;28.50
80367;DHT22;70058;42.660;23.366;2023-08-06T13:55:36;32.40;28.70
80367;DHT22;70058;42.660;23.366;2023-08-06T13:58:01;32.40;28.40
80367;DHT22;70058;42.660;23.366;2023-08-06T14:00:28;32.20;28.70
80367;DHT22;70058;42.660;23.366;2023-08-06T14:02:53;32.00;28.90
80367;DHT22;70058;42.660;23.366;2023-08-06T14:05:19;31.90;29.30
80367;DHT22;70058;42.660;23.366;2023-08-06T14:07:44;31.60;29.00
80367;DHT22;70058;42.660;23.366;2023-08-06T14:10:10;31.30;29.70
80367;DHT22;70058;42.660;23.366;2023-08-06T14:12:36;31.10;29.50
80367;DHT22;70058;42.660;23.366;2023-08-06T14:15:03;30.80;30.10
80367;DHT22;70058;42.660;23.366;2023-08-06T14:17:29;30.60;29.90
80367;DHT22;70058;42.660;23.366;2023-08-06T14:19:54;30.60;29.80
80367;DHT22;70058;42.660;23.366;2023-08-06T14:22:21;30.50;29.90
80367;DHT22;70058;42.660;23.366;2023-08-06T14:24:47;30.10;30.60
80367;DHT22;70058;42.660;23.366;2023-08-06T14:27:12;30.20;30.70
80367;DHT22;70058;42.660;23.366;2023-08-06T14:29:38;30.10;30.40
80367;DHT22;70058;42.660;23.366;2023-08-06T14:32:04;30.00;30.90
80367;DHT22;70058;42.660;23.366;2023-08-06T14:34:30;30.10;32.30
80367;DHT22;70058;42.660;23.366;2023-08-06T14:36:55;30.10;31.70
80367;DHT22;70058;42.660;23.366;2023-08-06T14:39:21;30.10;31.60
80367;DHT22;70058;42.660;23.366;2023-08-06T14:41:47;30.40;30.70
80367;DHT22;70058;42.660;23.366;2023-08-06T14:44:12;30.60;31.00
80367;DHT22;70058;42.660;23.366;2023-08-06T14:46:38;30.60;30.60
80367;DHT22;70058;42.660;23.366;2023-08-06T14:49:04;30.80;29.90
80367;DHT22;70058;42.660;23.366;2023-08-06T14:51:29;30.90;29.50
80367;DHT22;70058;42.660;23.366;2023-08-06T14:53:55;30.80;30.10
80367;DHT22;70058;42.660;23.366;2023-08-06T14:56:20;30.70;30.90
80367;DHT22;70058;42.660;23.366;2023-08-06T14:58:46;30.60;31.00
80367;DHT22;70058;42.660;23.366;2023-08-06T15:01:12;30.60;31.40
80367;DHT22;70058;42.660;23.366;2023-08-06T15:03:38;30.70;30.40
80367;DHT22;70058;42.660;23.366;2023-08-06T15:06:03;30.70;30.00
80367;DHT22;70058;42.660;23.366;2023-08-06T15:08:29;30.70;30.60
80367;DHT22;70058;42.660;23.366;2023-08-06T15:10:55;30.50;30.10
80367;DHT22;70058;42.660;23.366;2023-08-06T15:13:21;30.10;30.80
80367;DHT22;70058;42.660;23.366;2023-08-06T15:15:47;29.90;31.70
80367;DHT22;70058;42.660;23.366;2023-08-06T15:18:13;29.80;31.40
80367;DHT22;70058;42.660;23.366;2023-08-06T15:20:39;29.60;31.90
80367;DHT22;70058;42.660;23.366;2023-08-06T15:23:04;29.50;32.40